createdAt,value
2022-09-23T00:01:58.987Z,86.88
2022-09-23T00:04:32.154Z,86.74
2022-09-23T00:06:59.498Z,86.82
2022-09-23T00:09:26.968Z,86.59
2022-09-23T00:11:55.068Z,87.07
2022-09-23T00:14:23.233Z,85.71
2022-09-23T00:16:57.231Z,85.40
2022-09-23T00:19:27.806Z,85.75
2022-09-23T00:21:59.814Z,85.94
2022-09-23T00:24:30.348Z,86.73
2022-09-23T00:26:58.655Z,86.85
2022-09-23T00:29:31.394Z,87.20
2022-09-23T00:32:02.751Z,87.05
2022-09-23T00:34:33.292Z,86.89
2022-09-23T00:37:00.640Z,87.03
2022-09-23T00:39:27.923Z,87.26
2022-09-23T00:41:58.723Z,86.95
2022-09-23T00:44:59.761Z,87.23
2022-09-23T00:47:38.103Z,87.63
2022-09-23T00:50:30.830Z,88.56
2022-09-23T00:53:01.325Z,88.43
2022-09-23T00:55:52.930Z,88.54
2022-09-23T00:58:28.133Z,87.97
2022-09-23T01:01:07.731Z,88.12
2022-09-23T01:03:35.301Z,87.96
2022-09-23T01:06:02.711Z,88.63
2022-09-23T01:08:31.253Z,87.59
2022-09-23T01:11:29.943Z,88.09
2022-09-23T01:14:14.437Z,87.99
2022-09-23T01:16:53.403Z,88.25
2022-09-23T01:19:32.960Z,88.64
2022-09-23T01:22:16.708Z,88.49
2022-09-23T01:25:24.720Z,89.53
2022-09-23T01:28:06.885Z,88.84
2022-09-23T01:30:40.235Z,88.66
2022-09-23T01:34:03.019Z,88.51
2022-09-23T01:36:46.182Z,89.31
2022-09-23T01:39:24.019Z,89.24
2022-09-23T01:42:03.221Z,89.50
2022-09-23T01:44:56.977Z,88.91
2022-09-23T01:47:36.102Z,89.47
2022-09-23T01:50:14.600Z,89.09
2022-09-23T01:52:48.117Z,89.11
2022-09-23T01:55:25.627Z,88.84
2022-09-23T01:58:27.655Z,88.64
2022-09-23T02:01:03.273Z,88.87
2022-09-23T02:03:51.374Z,89.08
2022-09-23T02:06:29.382Z,89.21
2022-09-23T02:09:04.993Z,89.08
2022-09-23T02:11:36.619Z,88.75
2022-09-23T02:14:13.522Z,89.26
2022-09-23T02:16:53.086Z,89.39
2022-09-23T02:19:28.106Z,88.81
2022-09-23T02:22:10.946Z,88.33
2022-09-23T02:24:40.049Z,88.75
2022-09-23T02:27:45.969Z,88.76
2022-09-23T02:30:20.981Z,89.01
2022-09-23T02:33:04.735Z,88.65
2022-09-23T02:35:53.395Z,88.46
2022-09-23T02:38:29.616Z,88.00
2022-09-23T02:41:15.910Z,87.84
2022-09-23T02:43:53.060Z,88.61
2022-09-23T02:46:21.725Z,87.93
2022-09-23T02:48:59.338Z,88.04
2022-09-23T02:51:31.269Z,87.86
2022-09-23T02:53:58.866Z,88.15
2022-09-23T02:56:26.382Z,88.59
2022-09-23T02:58:54.946Z,88.48
2022-09-23T03:01:49.081Z,89.01
2022-09-23T03:04:43.698Z,87.71
2022-09-23T03:07:20.825Z,79.67
2022-09-23T03:09:54.065Z,76.42
2022-09-23T03:12:28.457Z,74.11
2022-09-23T03:15:11.560Z,74.99
2022-09-23T03:17:49.430Z,74.60
2022-09-23T03:20:38.210Z,76.49
2022-09-23T03:23:10.034Z,72.01
2022-09-23T03:25:40.898Z,74.17
2022-09-23T03:28:09.730Z,73.28
2022-09-23T03:30:39.231Z,69.49
2022-09-23T03:33:09.512Z,73.09
2022-09-23T03:35:49.184Z,71.90
2022-09-23T03:38:17.016Z,73.13
2022-09-23T03:40:46.833Z,73.15
2022-09-23T03:43:16.989Z,71.94
2022-09-23T03:45:46.345Z,73.08
2022-09-23T03:48:13.730Z,79.41
2022-09-23T03:50:41.126Z,82.25
2022-09-23T03:53:08.364Z,84.00
2022-09-23T03:55:35.899Z,84.74
2022-09-23T03:58:03.205Z,85.35
2022-09-23T04:00:30.417Z,85.67
2022-09-23T04:02:57.898Z,86.46
2022-09-23T04:05:25.212Z,87.08
2022-09-23T04:07:53.056Z,88.04
2022-09-23T04:10:20.779Z,88.47
2022-09-23T04:12:48.774Z,89.19
2022-09-23T04:15:16.996Z,88.99
2022-09-23T04:17:44.915Z,89.34
2022-09-23T04:20:12.916Z,88.75
2022-09-23T04:22:40.660Z,88.64
2022-09-23T04:25:10.208Z,87.67
2022-09-23T04:27:38.189Z,80.85
2022-09-23T04:30:06.713Z,74.53
2022-09-23T04:32:34.566Z,76.67
2022-09-23T04:35:02.390Z,80.27
2022-09-23T04:37:29.698Z,83.07
2022-09-23T04:39:57.288Z,86.83
2022-09-23T04:42:28.057Z,89.33
2022-09-23T04:44:55.414Z,88.83
2022-09-23T04:47:23.166Z,90.07
2022-09-23T04:49:50.481Z,89.62
2022-09-23T04:52:18.232Z,90.96
2022-09-23T04:54:45.480Z,90.88
2022-09-23T04:57:14.176Z,91.77
2022-09-23T04:59:41.693Z,91.90
2022-09-23T05:02:11.361Z,92.23
2022-09-23T05:04:39.116Z,92.80
2022-09-23T05:07:06.822Z,91.98
2022-09-23T05:09:34.133Z,92.26
2022-09-23T05:12:01.710Z,92.41
2022-09-23T05:14:28.940Z,92.66
2022-09-23T05:16:56.289Z,92.33
2022-09-23T05:19:23.527Z,92.47
2022-09-23T05:21:50.790Z,92.33
2022-09-23T05:24:18.306Z,92.58
2022-09-23T05:26:45.903Z,92.22
2022-09-23T05:29:13.215Z,90.37
2022-09-23T05:31:40.501Z,88.29
2022-09-23T05:34:08.287Z,88.00
2022-09-23T05:36:38.755Z,85.25
2022-09-23T05:39:07.632Z,82.69
2022-09-23T05:41:35.645Z,82.31
2022-09-23T05:44:03.090Z,82.53
2022-09-23T05:46:31.191Z,82.58
2022-09-23T05:49:02.652Z,82.94
2022-09-23T05:51:35.479Z,83.29
2022-09-23T05:54:03.858Z,82.88
2022-09-23T05:56:33.481Z,83.65
2022-09-23T05:59:02.156Z,82.41
2022-09-23T06:01:34.756Z,81.61
2022-09-23T06:04:05.561Z,80.77
2022-09-23T06:06:34.859Z,80.04
2022-09-23T06:09:03.318Z,78.05
2022-09-23T06:11:32.552Z,78.43
2022-09-23T06:14:00.565Z,77.29
2022-09-23T06:16:29.973Z,76.21
2022-09-23T06:19:00.626Z,75.47
2022-09-23T06:21:31.111Z,74.12
2022-09-23T06:23:58.791Z,72.97
2022-09-23T06:26:26.857Z,73.21
2022-09-23T06:28:54.089Z,74.65
2022-09-23T06:31:21.405Z,74.67
2022-09-23T06:33:49.951Z,73.27
2022-09-23T06:36:35.348Z,74.33
2022-09-23T06:39:05.151Z,74.61
2022-09-23T06:41:32.509Z,75.16
2022-09-23T06:44:00.038Z,74.14
2022-09-23T06:46:27.538Z,74.40
2022-09-23T06:48:55.060Z,73.57
2022-09-23T06:51:22.428Z,73.60
2022-09-23T06:53:49.989Z,74.53
2022-09-23T06:56:17.726Z,75.26
2022-09-23T06:58:45.354Z,74.99
2022-09-23T07:01:15.513Z,72.11
2022-09-23T07:03:44.292Z,73.79
2022-09-23T07:06:11.875Z,73.46
2022-09-23T07:08:43.043Z,73.08
2022-09-23T07:11:12.862Z,73.36
2022-09-23T07:13:41.296Z,72.55
2022-09-23T07:16:10.239Z,73.59
2022-09-23T07:18:39.509Z,72.35
2022-09-23T07:21:15.947Z,71.31
2022-09-23T07:23:45.476Z,70.64
2022-09-23T07:26:13.892Z,69.34
2022-09-23T07:28:41.352Z,70.88
2022-09-23T07:31:14.971Z,71.15
2022-09-23T07:33:43.007Z,70.28
2022-09-23T07:36:13.840Z,70.76
2022-09-23T07:38:45.233Z,70.21
2022-09-23T07:41:15.932Z,69.05
2022-09-23T07:43:43.850Z,69.17
2022-09-23T07:46:17.293Z,69.64
2022-09-23T07:48:45.771Z,68.18
2022-09-23T07:51:18.380Z,68.57
2022-09-23T07:53:53.887Z,70.13
2022-09-23T07:56:25.701Z,69.15
2022-09-23T07:58:53.538Z,69.02
2022-09-23T08:01:21.007Z,67.53
2022-09-23T08:03:48.348Z,67.32
2022-09-23T08:06:15.902Z,67.88
2022-09-23T08:08:43.178Z,66.49
2022-09-23T08:11:12.789Z,66.46
2022-09-23T08:13:40.892Z,65.25
2022-09-23T08:16:08.994Z,65.70
2022-09-23T08:18:36.727Z,67.73
2022-09-23T08:21:04.106Z,65.64
2022-09-23T08:23:31.421Z,66.19
2022-09-23T08:26:00.961Z,64.62
2022-09-23T08:28:28.599Z,65.02
2022-09-23T08:30:56.354Z,65.46
2022-09-23T08:33:24.199Z,65.07
2022-09-23T08:35:52.835Z,65.60
2022-09-23T08:38:20.517Z,64.27
2022-09-23T08:40:49.499Z,64.29
2022-09-23T08:43:29.800Z,63.55
2022-09-23T08:46:02.427Z,62.50
2022-09-23T08:48:34.747Z,61.56
2022-09-23T08:51:06.286Z,60.28
2022-09-23T08:53:36.396Z,60.40
2022-09-23T08:56:10.261Z,60.09
2022-09-23T08:59:16.452Z,59.08
2022-09-23T09:01:45.618Z,58.45
2022-09-23T09:04:16.092Z,57.99
2022-09-23T09:06:53.600Z,56.49
2022-09-23T09:09:30.529Z,56.10
2022-09-23T09:12:06.312Z,56.11
2022-09-23T09:15:00.296Z,55.32
2022-09-23T09:17:38.055Z,55.20
2022-09-23T09:20:05.419Z,55.60
2022-09-23T09:22:53.819Z,56.38
2022-09-23T09:25:41.125Z,53.97
2022-09-23T09:28:18.180Z,53.63
2022-09-23T09:30:50.697Z,50.03
2022-09-23T09:33:24.772Z,52.14
2022-09-23T09:36:40.241Z,52.80
2022-09-23T09:39:12.744Z,53.58
2022-09-23T09:41:50.577Z,52.39
2022-09-23T09:44:37.173Z,51.16
2022-09-23T09:47:25.176Z,52.57
2022-09-23T09:49:56.839Z,53.97
2022-09-23T09:52:26.463Z,52.30
2022-09-23T09:54:53.957Z,51.83
2022-09-23T09:57:54.316Z,51.23
2022-09-23T10:00:21.859Z,51.32
2022-09-23T10:02:55.209Z,48.93
2022-09-23T10:05:45.763Z,51.51
2022-09-23T10:08:23.908Z,47.67
2022-09-23T10:10:53.149Z,49.13
2022-09-23T10:13:22.282Z,49.81
2022-09-23T10:15:50.446Z,48.57
2022-09-23T10:18:23.583Z,48.65
2022-09-23T10:20:50.954Z,49.04
2022-09-23T10:23:26.678Z,49.03
2022-09-23T10:26:13.512Z,48.47
2022-09-23T10:28:52.154Z,47.81
2022-09-23T10:31:23.779Z,47.85
2022-09-23T10:33:56.458Z,47.36
2022-09-23T10:36:23.725Z,46.10
2022-09-23T10:39:02.319Z,44.00
2022-09-23T10:41:42.978Z,46.21
2022-09-23T10:44:39.392Z,45.76
2022-09-23T10:47:39.796Z,45.96
2022-09-23T10:50:17.952Z,44.32
2022-09-23T10:53:04.132Z,41.85
2022-09-23T10:55:50.519Z,45.27
2022-09-23T10:58:55.959Z,44.03
2022-09-23T11:01:46.631Z,44.25
2022-09-23T11:04:42.280Z,48.17
2022-09-23T11:07:22.891Z,47.56
2022-09-23T11:10:35.214Z,47.57
2022-09-23T11:13:18.981Z,47.87
2022-09-23T11:16:20.065Z,45.99
2022-09-23T11:19:02.374Z,45.74
2022-09-23T11:21:47.874Z,45.48
2022-09-23T11:24:36.972Z,45.90
2022-09-23T11:27:04.582Z,45.91
2022-09-23T11:29:38.344Z,47.46
2022-09-23T11:32:38.295Z,47.33
2022-09-23T11:35:15.682Z,43.66
2022-09-23T11:37:51.399Z,43.71
2022-09-23T11:40:30.171Z,44.36
2022-09-23T11:43:06.391Z,45.58
2022-09-23T11:45:40.009Z,45.81
2022-09-23T11:48:25.407Z,45.38
2022-09-23T11:51:05.017Z,45.13
2022-09-23T11:53:54.300Z,45.45
2022-09-23T11:56:36.288Z,43.39
2022-09-23T11:59:15.964Z,43.12
2022-09-23T12:01:49.867Z,42.30
2022-09-23T12:04:21.246Z,41.55
2022-09-23T12:06:56.912Z,40.70
2022-09-23T12:09:58.464Z,41.52
2022-09-23T12:12:31.863Z,41.94
2022-09-23T12:15:05.357Z,42.92
2022-09-23T12:18:05.338Z,42.31
2022-09-23T12:20:41.461Z,42.76
2022-09-23T12:23:24.981Z,42.63
2022-09-23T12:25:57.523Z,43.24
2022-09-23T12:28:33.805Z,40.69
2022-09-23T12:31:03.303Z,39.59
2022-09-23T12:33:32.904Z,40.01
2022-09-23T12:36:09.164Z,40.12
2022-09-23T12:38:48.485Z,41.21
2022-09-23T12:41:38.097Z,41.67
2022-09-23T12:44:11.284Z,41.24
2022-09-23T12:46:43.030Z,41.77
2022-09-23T12:49:30.002Z,41.80
2022-09-23T12:52:15.929Z,42.57
2022-09-23T12:54:45.679Z,42.85
2022-09-23T12:57:34.740Z,43.25
2022-09-23T13:00:07.785Z,42.12
2022-09-23T13:02:42.135Z,42.08
2022-09-23T13:05:20.626Z,42.70
2022-09-23T13:07:49.918Z,43.52
2022-09-23T13:10:21.018Z,43.60
2022-09-23T13:12:49.444Z,44.07
2022-09-23T13:15:36.316Z,45.70
2022-09-23T13:18:19.029Z,46.37
2022-09-23T13:20:51.458Z,45.45
2022-09-23T13:23:27.600Z,44.44
2022-09-23T13:26:01.346Z,43.52
2022-09-23T13:28:43.577Z,43.74
2022-09-23T13:31:16.809Z,42.86
2022-09-23T13:33:48.947Z,42.46
2022-09-23T13:36:18.607Z,42.64
2022-09-23T13:38:46.309Z,42.31
2022-09-23T13:41:20.721Z,42.02
2022-09-23T13:43:55.447Z,43.39
2022-09-23T13:46:26.571Z,42.94
2022-09-23T13:48:55.169Z,43.27
2022-09-23T13:51:33.814Z,44.33
2022-09-23T13:54:03.693Z,46.38
2022-09-23T13:56:32.796Z,44.94
2022-09-23T13:59:29.469Z,44.67
2022-09-23T14:02:25.986Z,44.69
2022-09-23T14:04:56.760Z,45.42
2022-09-23T14:07:25.130Z,45.34
2022-09-23T14:09:55.532Z,44.91
2022-09-23T14:12:23.152Z,45.09
2022-09-23T14:14:52.374Z,45.81
2022-09-23T14:17:21.693Z,46.58
2022-09-23T14:19:50.424Z,46.50
2022-09-23T14:22:23.664Z,46.64
2022-09-23T14:24:51.916Z,47.25
2022-09-23T14:27:29.865Z,45.46
2022-09-23T14:29:58.000Z,45.39
2022-09-23T14:32:26.775Z,43.90
2022-09-23T14:35:00.142Z,42.58
2022-09-23T14:37:29.666Z,42.28
2022-09-23T14:39:57.912Z,41.76
2022-09-23T14:42:25.344Z,43.41
2022-09-23T14:44:52.889Z,44.81
2022-09-23T14:47:20.089Z,44.95
2022-09-23T14:49:51.376Z,45.21
2022-09-23T14:52:18.526Z,45.46
2022-09-23T14:54:46.461Z,44.43
2022-09-23T14:57:23.085Z,44.57
2022-09-23T15:00:07.155Z,45.52
2022-09-23T15:02:35.917Z,45.52
2022-09-23T15:05:30.370Z,45.57
2022-09-23T15:08:01.470Z,46.07
2022-09-23T15:10:32.723Z,45.96
2022-09-23T15:13:09.735Z,45.98
2022-09-23T15:15:38.174Z,44.68
2022-09-23T15:18:16.158Z,45.38
2022-09-23T15:21:00.951Z,44.77
2022-09-23T15:23:44.795Z,43.50
2022-09-23T15:26:17.342Z,46.46
2022-09-23T15:28:46.633Z,44.77
2022-09-23T15:31:16.736Z,44.62
2022-09-23T15:33:48.768Z,44.38
2022-09-23T15:36:27.297Z,45.19
2022-09-23T15:39:01.131Z,44.55
2022-09-23T15:41:28.754Z,45.08
2022-09-23T15:43:56.330Z,45.03
2022-09-23T15:46:29.440Z,46.14
2022-09-23T15:49:00.618Z,46.74
2022-09-23T15:51:31.047Z,46.76
2022-09-23T15:53:58.749Z,46.65
2022-09-23T15:56:26.429Z,48.97
2022-09-23T15:58:53.954Z,47.49
2022-09-23T16:01:30.091Z,47.92
2022-09-23T16:03:57.745Z,48.11
2022-09-23T16:06:25.043Z,48.72
2022-09-23T16:08:52.382Z,49.18
2022-09-23T16:11:27.592Z,49.62
2022-09-23T16:13:54.952Z,49.80
2022-09-23T16:16:22.818Z,50.29
2022-09-23T16:18:50.299Z,50.01
2022-09-23T16:21:24.530Z,51.07
2022-09-23T16:23:52.710Z,51.56
2022-09-23T16:26:21.562Z,50.92
2022-09-23T16:28:50.912Z,51.29
2022-09-23T16:31:22.761Z,50.99
2022-09-23T16:33:50.517Z,51.67
2022-09-23T16:36:33.011Z,51.72
2022-09-23T16:39:03.508Z,52.53
2022-09-23T16:41:31.384Z,52.32
2022-09-23T16:43:59.967Z,52.77
2022-09-23T16:46:28.309Z,58.69
2022-09-23T16:48:55.718Z,54.57
2022-09-23T16:51:31.693Z,51.56
2022-09-23T16:53:59.287Z,51.65
2022-09-23T16:56:29.256Z,51.24
2022-09-23T16:58:57.003Z,52.45
2022-09-23T17:01:26.673Z,51.48
2022-09-23T17:03:54.029Z,50.92
2022-09-23T17:06:21.739Z,50.85
2022-09-23T17:08:49.163Z,50.65
2022-09-23T17:11:17.317Z,48.59
2022-09-23T17:13:44.573Z,50.25
2022-09-23T17:16:23.235Z,50.70
2022-09-23T17:18:51.113Z,51.08
2022-09-23T17:21:19.420Z,49.95
2022-09-23T17:23:46.796Z,51.99
2022-09-23T17:26:14.102Z,53.02
2022-09-23T17:28:41.411Z,53.96
2022-09-23T17:31:08.877Z,55.11
2022-09-23T17:33:36.429Z,55.22
2022-09-23T17:36:08.956Z,56.00
2022-09-23T17:38:37.188Z,55.88
2022-09-23T17:41:06.325Z,61.56
2022-09-23T17:43:33.873Z,52.52
2022-09-23T17:46:08.142Z,54.48
2022-09-23T17:48:37.916Z,55.84
2022-09-23T17:51:08.127Z,56.72
2022-09-23T17:53:37.728Z,56.95
2022-09-23T17:56:15.130Z,57.15
2022-09-23T17:58:43.929Z,57.74
2022-09-23T18:01:13.159Z,57.47
2022-09-23T18:03:40.911Z,56.77
2022-09-23T18:06:17.103Z,57.69
2022-09-23T18:08:48.489Z,58.00
2022-09-23T18:11:22.991Z,58.47
2022-09-23T18:13:57.312Z,58.38
2022-09-23T18:16:46.239Z,58.98
2022-09-23T18:19:16.010Z,59.65
2022-09-23T18:21:48.345Z,59.62
2022-09-23T18:24:33.197Z,59.91
2022-09-23T18:27:03.858Z,60.06
2022-09-23T18:29:33.280Z,60.67
2022-09-23T18:32:01.206Z,60.90
2022-09-23T18:34:28.637Z,61.65
2022-09-23T18:36:56.514Z,62.53
2022-09-23T18:39:26.631Z,62.96
2022-09-23T18:41:54.019Z,63.01
2022-09-23T18:44:21.527Z,63.17
2022-09-23T18:46:49.141Z,63.94
2022-09-23T18:49:16.588Z,63.33
2022-09-23T18:51:57.894Z,63.35
2022-09-23T18:54:27.371Z,63.60
2022-09-23T18:56:55.386Z,63.73
2022-09-23T18:59:24.150Z,63.70
2022-09-23T19:01:51.789Z,64.49
2022-09-23T19:04:20.650Z,64.60
2022-09-23T19:06:48.435Z,64.49
2022-09-23T19:09:16.572Z,64.09
2022-09-23T19:11:44.214Z,64.16
2022-09-23T19:14:12.387Z,64.40
2022-09-23T19:16:40.837Z,64.46
2022-09-23T19:19:09.055Z,64.19
2022-09-23T19:21:36.718Z,63.84
2022-09-23T19:24:06.827Z,63.75
2022-09-23T19:26:39.947Z,63.89
2022-09-23T19:29:13.325Z,64.01
2022-09-23T19:31:41.077Z,64.23
2022-09-23T19:34:14.536Z,64.35
2022-09-23T19:36:44.903Z,64.71
2022-09-23T19:39:38.459Z,64.87
2022-09-23T19:42:05.673Z,64.98
2022-09-23T19:44:32.995Z,65.83
2022-09-23T19:47:00.347Z,66.36
2022-09-23T19:49:28.107Z,66.84
2022-09-23T19:51:56.471Z,66.59
2022-09-23T19:54:24.601Z,67.20
2022-09-23T19:56:52.133Z,67.15
2022-09-23T19:59:19.698Z,67.49
2022-09-23T20:01:47.944Z,67.69
2022-09-23T20:04:16.248Z,68.38
2022-09-23T20:06:43.931Z,68.49
2022-09-23T20:09:11.237Z,69.00
2022-09-23T20:11:38.706Z,69.31
2022-09-23T20:14:06.408Z,68.82
2022-09-23T20:16:35.996Z,67.97
2022-09-23T20:19:04.102Z,68.33
2022-09-23T20:21:32.143Z,68.11
2022-09-23T20:23:59.524Z,68.69
2022-09-23T20:26:27.131Z,68.73
2022-09-23T20:28:55.286Z,68.36
2022-09-23T20:31:23.274Z,69.61
2022-09-23T20:33:55.833Z,70.47
2022-09-23T20:36:23.362Z,70.81
2022-09-23T20:38:58.892Z,70.27
2022-09-23T20:41:30.647Z,71.33
2022-09-23T20:43:58.364Z,70.87
2022-09-23T20:46:27.036Z,71.09
2022-09-23T20:48:54.812Z,71.68
2022-09-23T20:51:23.010Z,71.34
2022-09-23T20:53:51.243Z,71.76
2022-09-23T20:56:19.720Z,72.33
2022-09-23T20:58:47.205Z,72.53
2022-09-23T21:01:15.319Z,72.40
2022-09-23T21:03:44.846Z,72.71
2022-09-23T21:06:14.185Z,73.03
2022-09-23T21:08:42.851Z,73.24
2022-09-23T21:11:13.124Z,73.55
2022-09-23T21:13:40.577Z,73.77
2022-09-23T21:16:10.614Z,73.95
2022-09-23T21:18:38.516Z,74.36
2022-09-23T21:21:06.530Z,74.26
2022-09-23T21:23:36.796Z,73.86
2022-09-23T21:26:09.285Z,74.83
2022-09-23T21:28:51.153Z,75.18
2022-09-23T21:31:25.432Z,75.07
2022-09-23T21:33:58.286Z,75.09
2022-09-23T21:36:27.467Z,74.61
2022-09-23T21:38:55.553Z,74.40
2022-09-23T21:41:23.366Z,74.69
2022-09-23T21:43:51.041Z,74.96
2022-09-23T21:46:20.359Z,74.17
2022-09-23T21:48:49.790Z,74.31
2022-09-23T21:51:20.031Z,73.96
2022-09-23T21:53:47.412Z,73.86
2022-09-23T21:56:21.726Z,74.12
2022-09-23T21:58:50.115Z,75.14
2022-09-23T22:01:17.550Z,74.86
2022-09-23T22:03:50.600Z,74.50
2022-09-23T22:06:21.823Z,74.66
2022-09-23T22:08:51.881Z,75.31
2022-09-23T22:11:22.719Z,75.13
2022-09-23T22:13:49.989Z,75.72
2022-09-23T22:16:17.281Z,76.08
2022-09-23T22:18:44.488Z,76.58
2022-09-23T22:21:11.866Z,77.19
2022-09-23T22:23:39.409Z,77.60
2022-09-23T22:26:06.677Z,77.96
2022-09-23T22:28:33.988Z,78.22
2022-09-23T22:31:01.330Z,79.38
2022-09-23T22:33:28.611Z,78.84
2022-09-23T22:36:05.084Z,78.61
2022-09-23T22:38:32.393Z,78.66
2022-09-23T22:41:00.087Z,78.47
2022-09-23T22:43:27.354Z,79.09
2022-09-23T22:45:54.571Z,78.94
2022-09-23T22:48:21.821Z,78.62
2022-09-23T22:50:49.290Z,78.92
2022-09-23T22:53:17.042Z,79.18
2022-09-23T22:55:44.343Z,79.04
2022-09-23T22:58:31.311Z,80.01
2022-09-23T23:00:58.957Z,79.42
2022-09-23T23:03:26.571Z,79.28
2022-09-23T23:05:53.972Z,80.12
2022-09-23T23:08:21.365Z,80.28
2022-09-23T23:10:48.669Z,79.89
2022-09-23T23:13:16.421Z,79.81
2022-09-23T23:15:43.688Z,79.59
2022-09-23T23:18:10.970Z,79.28
2022-09-23T23:20:38.312Z,79.74
2022-09-23T23:23:05.837Z,79.23
2022-09-23T23:25:33.339Z,79.80
2022-09-23T23:28:00.652Z,79.77
2022-09-23T23:30:27.979Z,80.08
2022-09-23T23:32:55.256Z,80.82
2022-09-23T23:35:23.409Z,80.76
2022-09-23T23:37:50.867Z,81.03
2022-09-23T23:40:18.233Z,81.20
2022-09-23T23:42:45.510Z,81.01
2022-09-23T23:45:12.736Z,80.72
2022-09-23T23:47:40.562Z,79.68
2022-09-23T23:50:08.172Z,79.79
2022-09-23T23:52:35.445Z,80.11
2022-09-23T23:55:02.866Z,80.73
2022-09-23T23:57:30.465Z,81.95
2022-09-23T23:59:57.771Z,81.18
